Time;durP1;ratioP1;P1;durP2;ratioP2;P2;SDS_P1;SDS_P2;PMS_P1;PMS_P2;Temp;Humidity;BMP_temperature;BMP_pressure;BME280_temperature;BME280_humidity;BME280_pressure;Samples;Min_cycle;Max_cycle;Signal;HPM_P1;HPM_P2
2023/05/20 00:02:10;;;;;;;2.72;2.03;;;13.40;99.90;;;;;;5072474;28;20704;-45
2023/05/20 00:04:36;;;;;;;2.25;1.70;;;;;;;;;;5071777;28;20288;-45
2023/05/20 00:07:03;;;;;;;2.35;1.90;;;;;;;;;;5071685;28;20258;-46
2023/05/20 00:09:29;;;;;;;3.53;1.88;;;;;;;;;;5072844;28;20181;-46
2023/05/20 00:11:54;;;;;;;3.45;2.13;;;13.30;99.90;;;;;;5073170;28;20213;-46
2023/05/20 00:14:20;;;;;;;2.88;1.95;;;;;;;;;;5072769;28;20670;-46
2023/05/20 00:16:46;;;;;;;3.58;1.85;;;13.30;99.90;;;;;;5072625;28;20638;-46
2023/05/20 00:19:12;;;;;;;4.38;1.88;;;;;;;;;;5072171;28;20262;-46
2023/05/20 00:21:37;;;;;;;2.50;2.05;;;13.30;99.90;;;;;;5086578;28;20174;-46
2023/05/20 00:24:03;;;;;;;3.75;2.10;;;13.30;99.90;;;;;;5072530;28;20178;-46
2023/05/20 00:26:28;;;;;;;2.42;2.00;;;13.40;99.90;;;;;;5073075;28;20205;-46
2023/05/20 00:28:54;;;;;;;2.55;1.92;;;13.30;99.90;;;;;;5072676;28;20636;-46
2023/05/20 00:31:20;;;;;;;3.72;2.42;;;13.40;99.90;;;;;;5072280;28;20170;-46
2023/05/20 00:33:46;;;;;;;2.90;2.20;;;13.40;99.90;;;;;;5072603;28;20283;-47
2023/05/20 00:36:11;;;;;;;2.55;2.15;;;13.30;99.90;;;;;;5072668;28;20675;-46
2023/05/20 00:38:37;;;;;;;3.45;1.70;;;13.20;99.90;;;;;;5070804;28;20533;-47
2023/05/20 00:41:02;;;;;;;3.72;2.10;;;13.30;99.90;;;;;;5071815;28;20235;-46
2023/05/20 00:43:28;;;;;;;2.65;1.83;;;13.20;99.90;;;;;;5071740;28;20531;-47
2023/05/20 00:45:54;;;;;;;5.13;2.08;;;13.10;99.90;;;;;;5072094;28;20623;-46
2023/05/20 00:48:20;;;;;;;3.95;1.95;;;13.00;99.90;;;;;;5072165;28;20163;-46
2023/05/20 00:50:47;;;;;;;3.80;2.00;;;12.90;99.90;;;;;;5072120;28;20196;-47
2023/05/20 00:53:16;;;;;;;2.70;2.42;;;12.90;99.90;;;;;;5072195;28;20674;-47
2023/05/20 00:55:41;;;;;;;2.67;1.80;;;12.90;99.90;;;;;;5070366;28;20170;-46
2023/05/20 00:58:07;;;;;;;2.83;2.25;;;12.90;99.90;;;;;;5070766;28;20197;-46
2023/05/20 01:00:33;;;;;;;4.53;2.30;;;;;;;;;;5072030;28;20173;-46
2023/05/20 01:02:59;;;;;;;2.75;2.20;;;12.90;99.90;;;;;;5071933;28;20181;-47
2023/05/20 01:05:25;;;;;;;3.60;1.90;;;12.90;99.90;;;;;;5071694;28;20166;-46
2023/05/20 01:07:51;;;;;;;4.63;2.38;;;12.80;99.90;;;;;;5072050;28;20223;-46
2023/05/20 01:10:17;;;;;;;3.60;2.10;;;;;;;;;;5071694;28;20659;-46
2023/05/20 01:12:52;;;;;;;4.90;2.15;;;12.80;99.90;;;;;;5070611;28;20376;-46
2023/05/20 01:15:18;;;;;;;4.45;2.03;;;;;;;;;;5071571;28;20532;-46
2023/05/20 01:17:46;;;;;;;3.08;2.03;;;12.70;99.90;;;;;;5071411;28;20170;-46
2023/05/20 01:20:13;;;;;;;2.58;2.15;;;12.70;99.90;;;;;;5071897;28;20166;-46
2023/05/20 01:22:46;;;;;;;2.40;2.15;;;12.70;99.90;;;;;;5071572;28;20166;-46
2023/05/20 01:25:12;;;;;;;3.42;2.33;;;12.70;99.90;;;;;;5071587;28;20180;-46
2023/05/20 01:27:38;;;;;;;2.30;2.10;;;12.70;99.90;;;;;;5087144;28;20170;-46
2023/05/20 01:30:04;;;;;;;4.45;2.33;;;12.80;99.90;;;;;;5069847;28;20182;-46
2023/05/20 01:32:39;;;;;;;5.30;2.15;;;12.80;99.90;;;;;;5071234;28;20686;-46
2023/05/20 01:35:06;;;;;;;4.07;2.20;;;12.80;99.90;;;;;;5071320;28;20219;-46
2023/05/20 01:37:37;;;;;;;2.65;2.28;;;12.90;99.90;;;;;;5071261;28;20214;-47
2023/05/20 01:40:03;;;;;;;3.63;2.22;;;;;;;;;;5071276;28;20193;-47
2023/05/20 01:42:29;;;;;;;2.22;2.03;;;;;;;;;;5071679;28;20288;-45
2023/05/20 01:44:56;;;;;;;2.42;2.22;;;;;;;;;;5070438;28;20211;-46
2023/05/20 01:47:21;;;;;;;4.13;2.20;;;12.70;99.90;;;;;;5070838;28;20170;-46
2023/05/20 01:49:48;;;;;;;2.97;2.10;;;;;;;;;;5071396;28;20672;-46
2023/05/20 01:52:14;;;;;;;3.50;2.20;;;12.50;99.90;;;;;;5070932;28;20536;-46
2023/05/20 01:54:40;;;;;;;6.03;2.20;;;12.40;99.90;;;;;;5070922;28;20597;-47
2023/05/20 01:57:05;;;;;;;3.47;2.05;;;12.30;99.90;;;;;;5070944;28;20202;-46
2023/05/20 01:59:31;;;;;;;3.15;2.20;;;;;;;;;;5070897;28;20182;-46
2023/05/20 02:01:57;;;;;;;3.63;2.10;;;;;;;;;;5070155;28;20499;-46
2023/05/20 02:04:23;;;;;;;4.43;2.20;;;;;;;;;;5071022;28;20177;-46
2023/05/20 02:06:49;;;;;;;3.13;2.40;;;12.10;99.90;;;;;;5070779;28;20221;-46
2023/05/20 02:09:14;;;;;;;6.85;2.65;;;12.20;99.90;;;;;;5070956;28;20169;-46
2023/05/20 02:11:40;;;;;;;3.13;2.20;;;;;;;;;;5070643;28;20241;-46
2023/05/20 02:14:06;;;;;;;3.05;2.50;;;12.20;99.90;;;;;;5070637;28;20192;-46
2023/05/20 02:16:31;;;;;;;2.97;2.55;;;12.20;99.90;;;;;;5069510;28;20174;-46
2023/05/20 02:18:57;;;;;;;4.32;2.78;;;;;;;;;;5071060;28;20264;-46
2023/05/20 02:21:24;;;;;;;3.65;2.00;;;12.20;99.90;;;;;;5070846;28;20646;-46
2023/05/20 02:23:50;;;;;;;3.05;2.30;;;12.10;99.90;;;;;;5071049;28;20180;-46
2023/05/20 02:26:16;;;;;;;4.75;2.30;;;;;;;;;;5070690;28;20170;-46
2023/05/20 02:28:45;;;;;;;3.75;2.15;;;12.10;99.90;;;;;;5070354;28;20227;-47
2023/05/20 02:31:13;;;;;;;4.28;2.35;;;12.00;99.90;;;;;;5069893;28;20250;-46
2023/05/20 02:33:39;;;;;;;3.38;2.45;;;11.90;99.90;;;;;;5070247;28;20234;-46
2023/05/20 02:36:05;;;;;;;4.70;2.45;;;11.90;99.90;;;;;;5070640;28;20166;-46
2023/05/20 02:38:31;;;;;;;4.82;2.20;;;;;;;;;;5071174;28;20245;-46
2023/05/20 02:40:58;;;;;;;3.53;2.33;;;11.80;99.90;;;;;;5071009;28;20166;-46
2023/05/20 02:43:24;;;;;;;3.92;2.72;;;11.90;99.90;;;;;;5071068;28;20182;-46
2023/05/20 02:45:49;;;;;;;4.10;2.60;;;11.90;99.90;;;;;;5070070;28;20521;-46
2023/05/20 02:48:15;;;;;;;5.28;2.70;;;;;;;;;;5070398;28;20192;-46
2023/05/20 02:50:41;;;;;;;5.47;2.92;;;11.80;99.90;;;;;;5069304;28;20198;-46
2023/05/20 02:53:07;;;;;;;3.40;2.35;;;11.70;99.90;;;;;;5070113;28;20206;-46
2023/05/20 02:55:34;;;;;;;4.45;2.30;;;11.70;99.90;;;;;;5070454;28;20166;-46
2023/05/20 02:58:00;;;;;;;5.07;2.20;;;;;;;;;;5071138;28;20219;-46
2023/05/20 03:00:29;;;;;;;3.42;2.75;;;;;;;;;;5070363;28;20536;-46
2023/05/20 03:02:55;;;;;;;3.78;2.97;;;;;;;;;;5070340;28;20280;-46
2023/05/20 03:05:21;;;;;;;3.20;2.80;;;11.80;99.90;;;;;;5072176;28;20198;-46
2023/05/20 03:07:47;;;;;;;5.63;2.80;;;11.80;99.90;;;;;;5074201;28;20228;-46
2023/05/20 03:10:13;;;;;;;6.22;2.60;;;;;;;;;;5074216;28;20177;-46
2023/05/20 03:12:39;;;;;;;3.38;2.33;;;11.80;99.90;;;;;;5073947;28;20210;-46
2023/05/20 03:15:05;;;;;;;3.13;2.38;;;11.70;99.90;;;;;;5073566;28;20206;-46
2023/05/20 03:17:31;;;;;;;4.85;3.13;;;;;;;;;;5073928;28;20223;-46
2023/05/20 03:19:57;;;;;;;5.82;2.85;;;11.70;99.90;;;;;;5074199;28;20631;-46
2023/05/20 03:22:22;;;;;;;7.43;3.08;;;11.60;99.90;;;;;;5073022;28;20196;-47
2023/05/20 03:24:48;;;;;;;4.30;2.80;;;11.60;99.90;;;;;;5073663;28;20182;-46
2023/05/20 03:27:13;;;;;;;6.70;2.70;;;11.50;99.90;;;;;;5073869;28;20214;-47
2023/05/20 03:29:39;;;;;;;3.72;2.47;;;;;;;;;;5073571;28;20170;-47
2023/05/20 03:32:05;;;;;;;5.18;2.58;;;11.70;99.90;;;;;;5073539;28;20654;-46
2023/05/20 03:34:31;;;;;;;5.15;2.75;;;;;;;;;;5073678;28;20166;-46
2023/05/20 03:36:59;;;;;;;6.78;2.70;;;11.50;99.90;;;;;;5074051;28;20177;-46
2023/05/20 03:39:25;;;;;;;5.07;3.15;;;;;;;;;;5073766;28;20257;-46
2023/05/20 03:41:50;;;;;;;4.38;3.08;;;11.60;99.90;;;;;;5072812;28;20201;-46
2023/05/20 03:44:16;;;;;;;4.95;2.83;;;11.60;99.90;;;;;;5073196;28;20205;-46
2023/05/20 03:46:41;;;;;;;4.50;3.00;;;11.50;99.90;;;;;;5073422;28;20174;-46
2023/05/20 03:49:07;;;;;;;9.98;3.10;;;;;;;;;;5073381;28;20173;-46
2023/05/20 03:51:33;;;;;;;4.05;2.70;;;11.70;99.90;;;;;;5073297;28;20211;-46
2023/05/20 03:53:58;;;;;;;5.35;3.25;;;11.60;99.90;;;;;;5073730;28;20292;-46
2023/05/20 03:56:25;;;;;;;7.03;3.10;;;11.60;99.90;;;;;;5073199;28;20178;-46
2023/05/20 03:58:51;;;;;;;3.83;2.67;;;11.50;99.90;;;;;;5071785;28;20634;-46
2023/05/20 04:01:17;;;;;;;6.53;2.70;;;11.60;99.90;;;;;;5073178;28;20170;-46
2023/05/20 04:03:42;;;;;;;4.13;3.03;;;11.40;99.90;;;;;;5073457;28;20170;-46
2023/05/20 04:06:08;;;;;;;3.45;2.72;;;11.50;99.90;;;;;;5073034;28;20213;-47
2023/05/20 04:08:35;;;;;;;4.65;3.25;;;11.60;99.90;;;;;;5073089;28;20216;-46
2023/05/20 04:11:01;;;;;;;7.00;3.38;;;;;;;;;;5072908;28;20170;-46
2023/05/20 04:13:27;;;;;;;4.90;3.20;;;11.60;99.90;;;;;;5073435;28;20202;-47
2023/05/20 04:15:53;;;;;;;7.95;3.50;;;11.70;99.90;;;;;;5070444;28;20528;-46
2023/05/20 04:18:18;;;;;;;5.43;3.20;;;11.60;99.90;;;;;;5072581;28;20233;-46
2023/05/20 04:20:46;;;;;;;4.63;3.10;;;;;;;;;;5072552;28;20173;-46
2023/05/20 04:23:12;;;;;;;4.47;3.10;;;;;;;;;;5072179;28;20216;-46
2023/05/20 04:25:40;;;;;;;4.25;2.70;;;;;;;;;;5072363;28;20245;-46
2023/05/20 04:28:05;;;;;;;4.75;3.30;;;11.90;99.90;;;;;;5072670;28;20174;-46
2023/05/20 04:30:32;;;;;;;3.45;2.80;;;;;;;;;;5071699;28;20166;-46
2023/05/20 04:32:58;;;;;;;5.18;3.13;;;12.10;99.90;;;;;;5071571;28;20301;-46
2023/05/20 04:35:24;;;;;;;6.63;3.40;;;;;;;;;;5072495;28;20252;-46
2023/05/20 04:37:52;;;;;;;4.85;3.05;;;12.20;99.90;;;;;;5072302;28;20538;-47
2023/05/20 04:40:18;;;;;;;3.28;2.85;;;12.50;99.90;;;;;;5071958;28;20162;-46
2023/05/20 04:42:44;;;;;;;6.32;2.63;;;12.50;99.90;;;;;;5072004;28;20166;-46
2023/05/20 04:45:11;;;;;;;5.47;2.90;;;12.60;99.90;;;;;;5071459;28;20180;-47
2023/05/20 04:47:37;;;;;;;4.75;2.75;;;12.80;99.90;;;;;;5072171;28;20177;-47
2023/05/20 04:50:07;;;;;;;4.55;2.95;;;12.90;99.90;;;;;;5071414;28;20189;-46
2023/05/20 04:52:33;;;;;;;3.55;2.85;;;13.00;99.90;;;;;;5072130;28;20254;-46
2023/05/20 04:55:00;;;;;;;5.32;2.88;;;13.20;99.90;;;;;;5072523;28;20253;-46
2023/05/20 04:57:26;;;;;;;4.80;2.92;;;13.30;99.90;;;;;;5072255;28;20181;-47
2023/05/20 04:59:51;;;;;;;3.78;2.83;;;13.40;99.90;;;;;;5071618;28;20170;-46
2023/05/20 05:02:17;;;;;;;5.47;3.17;;;13.60;99.90;;;;;;5071661;28;20177;-47
2023/05/20 05:04:43;;;;;;;8.10;3.15;;;;;;;;;;5069960;28;20170;-46
2023/05/20 05:07:08;;;;;;;5.40;2.85;;;13.80;99.90;;;;;;5070811;28;20293;-48
2023/05/20 05:09:34;;;;;;;3.75;2.80;;;;;;;;;;5071447;28;20174;-47
2023/05/20 05:12:01;;;;;;;5.32;2.92;;;13.90;99.90;;;;;;5067149;28;20185;-46
2023/05/20 05:14:27;;;;;;;4.65;2.97;;;;;;;;;;5072892;28;20510;-47
2023/05/20 05:16:53;;;;;;;4.93;2.80;;;13.90;99.90;;;;;;5071382;28;20169;-46
2023/05/20 05:19:18;;;;;;;3.92;3.13;;;13.90;99.90;;;;;;5070540;28;20223;-46
2023/05/20 05:21:44;;;;;;;6.40;3.13;;;13.90;99.90;;;;;;5070349;28;20182;-46
2023/05/20 05:24:09;;;;;;;3.55;2.70;;;14.00;99.90;;;;;;5070269;28;20174;-46
2023/05/20 05:26:35;;;;;;;6.05;2.80;;;;;;;;;;5071295;28;20236;-46
2023/05/20 05:29:01;;;;;;;3.75;2.42;;;;;;;;;;5070165;28;20180;-46
2023/05/20 05:31:27;;;;;;;5.95;3.33;;;14.30;99.90;;;;;;5071810;28;20174;-46
2023/05/20 05:33:52;;;;;;;2.70;2.35;;;14.40;99.90;;;;;;5066650;28;20679;-47
2023/05/20 05:36:18;;;;;;;4.40;2.70;;;14.50;99.90;;;;;;5051323;28;20663;-46
2023/05/20 05:38:44;;;;;;;4.43;2.75;;;;;;;;;;5054827;28;20656;-46
2023/05/20 05:41:10;;;;;;;4.10;2.47;;;;;;;;;;5063298;28;20172;-46
2023/05/20 05:43:35;;;;;;;7.57;2.80;;;14.40;99.90;;;;;;5071220;28;20169;-46
2023/05/20 05:46:01;;;;;;;5.22;3.08;;;14.60;99.90;;;;;;5056597;28;20174;-46
2023/05/20 05:48:27;;;;;;;6.05;2.88;;;14.50;99.90;;;;;;5071710;28;20170;-46
2023/05/20 05:50:53;;;;;;;5.65;2.80;;;;;;;;;;5069658;28;20295;-46
2023/05/20 05:53:18;;;;;;;4.53;2.80;;;14.60;99.90;;;;;;5067147;28;20283;-50
2023/05/20 05:55:48;;;;;;;6.05;2.65;;;14.70;99.90;;;;;;5061997;28;20233;-45
2023/05/20 05:58:13;;;;;;;5.07;2.92;;;14.80;99.90;;;;;;5066752;28;20182;-45
2023/05/20 06:00:39;;;;;;;5.25;2.80;;;14.80;99.90;;;;;;5071159;28;20165;-46
2023/05/20 06:03:04;;;;;;;3.60;2.65;;;14.80;99.90;;;;;;5070986;28;20180;-46
2023/05/20 06:05:31;;;;;;;4.90;2.53;;;14.90;99.90;;;;;;5070710;28;20241;-46
2023/05/20 06:07:57;;;;;;;2.92;2.58;;;;;;;;;;5070306;28;20189;-50
2023/05/20 06:10:22;;;;;;;5.65;2.63;;;15.00;99.90;;;;;;5086681;28;20181;-47
2023/05/20 06:12:48;;;;;;;3.83;2.70;;;15.00;99.90;;;;;;5069652;28;20198;-45
2023/05/20 06:15:14;;;;;;;5.70;2.92;;;;;;;;;;5070958;28;20166;-46
2023/05/20 06:17:40;;;;;;;5.13;2.53;;;;;;;;;;5069949;28;20567;-46
2023/05/20 06:20:06;;;;;;;4.43;2.60;;;15.20;99.90;;;;;;5070864;28;20219;-45
2023/05/20 06:22:32;;;;;;;4.43;3.00;;;15.20;99.90;;;;;;5070987;28;20182;-45
2023/05/20 06:24:59;;;;;;;5.78;2.58;;;15.30;99.90;;;;;;5070207;28;20619;-46
2023/05/20 06:27:26;;;;;;;3.25;2.50;;;15.40;99.90;;;;;;5071311;28;20185;-45
2023/05/20 06:29:51;;;;;;;2.80;2.50;;;15.50;99.90;;;;;;5069784;28;20213;-45
2023/05/20 06:32:17;;;;;;;4.75;2.30;;;;;;;;;;5070762;28;20237;-45
2023/05/20 06:34:43;;;;;;;4.25;2.67;;;15.60;99.90;;;;;;5070719;28;20204;-46
2023/05/20 06:37:08;;;;;;;4.68;2.50;;;15.70;99.90;;;;;;5070888;28;20186;-46
2023/05/20 06:39:34;;;;;;;9.07;3.00;;;15.60;99.90;;;;;;5071125;28;20166;-45
2023/05/20 06:42:00;;;;;;;5.18;2.67;;;;;;;;;;5074008;28;20230;-46
2023/05/20 06:44:26;;;;;;;5.10;2.47;;;;;;;;;;5072894;28;20244;-46
2023/05/20 06:46:51;;;;;;;3.45;2.50;;;15.70;99.90;;;;;;5073629;28;20553;-46
2023/05/20 06:49:17;;;;;;;3.88;2.72;;;15.90;99.90;;;;;;5073781;28;20166;-46
2023/05/20 06:51:43;;;;;;;5.10;2.75;;;;;;;;;;5071036;28;20170;-47
2023/05/20 06:54:09;;;;;;;2.70;2.50;;;15.80;99.90;;;;;;5073768;28;20258;-47
2023/05/20 06:56:35;;;;;;;3.95;2.92;;;15.80;99.90;;;;;;5073761;28;20166;-46
2023/05/20 06:59:01;;;;;;;3.30;3.00;;;;;;;;;;5074567;28;20202;-47
2023/05/20 07:01:27;;;;;;;3.25;2.30;;;;;;;;;;5069374;28;20186;-48
2023/05/20 07:03:53;;;;;;;3.50;2.47;;;16.10;99.90;;;;;;5069149;28;20235;-45
2023/05/20 07:06:18;;;;;;;5.82;3.63;;;16.10;99.90;;;;;;5072754;28;20205;-49
2023/05/20 07:08:44;;;;;;;3.17;2.80;;;;;;;;;;5063597;28;20232;-46
2023/05/20 07:11:10;;;;;;;4.63;2.42;;;;;;;;;;5072619;28;20189;-49
2023/05/20 07:13:37;;;;;;;3.03;2.65;;;;;;;;;;5072967;28;20737;-50
2023/05/20 07:16:03;;;;;;;4.50;2.55;;;;;;;;;;5073020;28;20299;-47
2023/05/20 07:18:29;;;;;;;4.18;2.63;;;;;;;;;;5070127;28;20647;-46
2023/05/20 07:20:56;;;;;;;2.47;2.20;;;;;;;;;;5073087;28;20174;-46
2023/05/20 07:23:23;;;;;;;3.53;2.58;;;16.30;99.90;;;;;;5061339;28;20178;-49
2023/05/20 07:25:49;;;;;;;2.53;2.25;;;16.30;99.90;;;;;;5071987;28;20192;-46
2023/05/20 07:28:16;;;;;;;4.40;2.20;;;16.30;99.90;;;;;;5067813;28;20174;-50
2023/05/20 07:30:48;;;;;;;3.85;2.72;;;;;;;;;;5068888;28;20170;-50
2023/05/20 07:33:14;;;;;;;2.95;2.60;;;16.30;99.90;;;;;;5060485;28;20221;-45
2023/05/20 07:35:42;;;;;;;6.50;3.35;;;16.10;99.90;;;;;;5054742;28;20650;-49
2023/05/20 07:38:08;;;;;;;2.95;2.08;;;16.20;99.90;;;;;;5063322;28;20174;-45
2023/05/20 07:40:35;;;;;;;3.08;2.78;;;16.40;99.90;;;;;;5053900;28;20213;-49
2023/05/20 07:43:01;;;;;;;8.43;2.90;;;;;;;;;;5071955;28;20223;-49
2023/05/20 07:45:27;;;;;;;4.80;2.90;;;16.80;99.90;;;;;;5073703;28;20186;-49
2023/05/20 07:47:53;;;;;;;3.15;2.67;;;16.80;99.90;;;;;;5075528;28;20582;-49
2023/05/20 07:50:19;;;;;;;4.28;2.53;;;16.90;99.90;;;;;;5074468;28;20197;-49
2023/05/20 07:52:45;;;;;;;5.47;2.55;;;17.00;99.90;;;;;;5074545;28;20190;-49
2023/05/20 07:55:11;;;;;;;3.22;2.92;;;17.20;99.90;;;;;;5056788;28;20225;-48
2023/05/20 07:57:37;;;;;;;3.90;2.80;;;;;;;;;;5054753;28;20163;-49
2023/05/20 08:00:03;;;;;;;4.95;3.08;;;17.30;99.90;;;;;;5054292;28;20170;-45
2023/05/20 08:02:28;;;;;;;2.97;2.67;;;17.50;99.90;;;;;;5054709;28;20167;-45
2023/05/20 08:04:54;;;;;;;4.82;2.80;;;17.40;99.90;;;;;;5053601;28;20162;-47
2023/05/20 08:07:20;;;;;;;4.18;2.83;;;17.70;99.90;;;;;;5062319;28;20225;-47
2023/05/20 08:09:45;;;;;;;4.40;2.58;;;17.70;99.90;;;;;;5053539;28;20533;-44
2023/05/20 08:12:11;;;;;;;4.30;3.08;;;17.50;99.90;;;;;;5056001;28;20200;-44
2023/05/20 08:14:36;;;;;;;5.82;2.90;;;17.60;99.90;;;;;;5053591;28;20189;-44
2023/05/20 08:17:02;;;;;;;6.20;2.92;;;17.40;99.90;;;;;;5055022;28;20170;-44
2023/05/20 08:19:28;;;;;;;8.48;2.95;;;;;;;;;;5065682;28;20250;-49
2023/05/20 08:21:53;;;;;;;5.57;2.53;;;17.70;99.90;;;;;;5063030;28;20258;-45
2023/05/20 08:24:20;;;;;;;5.03;3.10;;;;;;;;;;5073188;28;20176;-44
2023/05/20 08:26:45;;;;;;;5.60;3.10;;;17.90;99.90;;;;;;5073444;28;20162;-45
2023/05/20 08:29:11;;;;;;;4.82;3.22;;;;;;;;;;5073200;28;20181;-47
2023/05/20 08:31:37;;;;;;;4.47;2.88;;;18.10;99.90;;;;;;5073295;28;20178;-44
2023/05/20 08:34:02;;;;;;;4.32;2.55;;;18.10;99.90;;;;;;5073193;28;20324;-45
2023/05/20 08:36:28;;;;;;;4.38;2.92;;;18.20;99.90;;;;;;5072072;28;20215;-46
2023/05/20 08:38:54;;;;;;;3.13;2.83;;;18.50;99.90;;;;;;5070197;28;20177;-44
2023/05/20 08:41:21;;;;;;;4.35;2.58;;;18.30;99.90;;;;;;5060820;28;20174;-45
2023/05/20 08:43:49;;;;;;;4.07;3.10;;;18.40;99.90;;;;;;5053180;28;20182;-45
2023/05/20 08:46:14;;;;;;;4.75;2.70;;;18.60;99.90;;;;;;5052896;28;20174;-45
2023/05/20 08:48:40;;;;;;;3.72;3.40;;;18.90;99.90;;;;;;5052872;28;20163;-44
2023/05/20 08:51:10;;;;;;;4.03;2.90;;;18.70;99.90;;;;;;5062207;28;20331;-44
2023/05/20 08:53:35;;;;;;;3.17;2.67;;;18.70;99.90;;;;;;5070032;28;20263;-45
2023/05/20 08:56:01;;;;;;;4.00;2.97;;;18.80;99.90;;;;;;5072838;28;20166;-45
2023/05/20 08:58:31;;;;;;;4.35;2.55;;;19.10;99.90;;;;;;5072735;28;20185;-45
2023/05/20 09:01:01;;;;;;;5.43;2.80;;;18.70;99.90;;;;;;5072542;28;20175;-43
2023/05/20 09:03:27;;;;;;;4.65;3.20;;;18.70;99.90;;;;;;5072853;28;20177;-44
2023/05/20 09:06:01;;;;;;;3.78;2.97;;;18.70;99.90;;;;;;5072317;28;20789;-44
2023/05/20 09:08:29;;;;;;;4.55;2.83;;;18.80;99.90;;;;;;5057762;28;20198;-45
2023/05/20 09:10:55;;;;;;;6.05;3.25;;;19.00;99.90;;;;;;5052833;28;20167;-43
2023/05/20 09:13:22;;;;;;;3.85;2.90;;;18.80;99.90;;;;;;5052370;28;20206;-44
2023/05/20 09:15:48;;;;;;;2.55;2.35;;;18.60;99.90;;;;;;5062223;28;20166;-45
2023/05/20 09:18:13;;;;;;;7.32;2.92;;;18.80;99.90;;;;;;5072193;28;20574;-49
2023/05/20 09:20:40;;;;;;;3.40;3.10;;;;;;;;;;5072328;28;20166;-48
2023/05/20 09:23:07;;;;;;;3.47;2.88;;;18.80;99.90;;;;;;5055607;28;20236;-49
2023/05/20 09:25:34;;;;;;;6.80;3.45;;;18.80;99.90;;;;;;5052500;28;20171;-48
2023/05/20 09:28:00;;;;;;;4.30;3.42;;;;;;;;;;5058197;28;20233;-49
2023/05/20 09:30:26;;;;;;;6.53;3.50;;;18.90;99.90;;;;;;5070423;28;20653;-49
2023/05/20 09:32:56;;;;;;;3.78;3.22;;;19.00;99.90;;;;;;5065953;28;20240;-49
2023/05/20 09:35:23;;;;;;;4.22;3.40;;;18.80;99.90;;;;;;5051437;28;20254;-50
2023/05/20 09:37:54;;;;;;;8.70;3.80;;;18.80;99.90;;;;;;5051820;28;20175;-49
2023/05/20 09:40:25;;;;;;;3.67;3.35;;;18.70;99.90;;;;;;5051133;28;20174;-49
2023/05/20 09:42:55;;;;;;;4.03;3.22;;;19.10;99.90;;;;;;5051338;28;20169;-48
2023/05/20 09:45:21;;;;;;;4.70;3.40;;;;;;;;;;5051977;28;20265;-45
2023/05/20 09:47:50;;;;;;;6.18;3.63;;;19.10;99.90;;;;;;5062462;28;20531;-45
2023/05/20 09:50:19;;;;;;;6.82;3.88;;;19.10;99.90;;;;;;5065020;28;20227;-44
2023/05/20 09:52:50;;;;;;;6.18;4.10;;;19.50;99.90;;;;;;5058752;28;20206;-44
2023/05/20 09:55:22;;;;;;;4.18;3.33;;;19.40;99.90;;;;;;5070811;28;20158;-48
2023/05/20 09:57:54;;;;;;;3.83;3.38;;;19.40;99.90;;;;;;5064940;28;20167;-45
2023/05/20 10:00:20;;;;;;;3.97;3.53;;;19.40;99.90;;;;;;5054910;28;20263;-44
2023/05/20 10:02:55;;;;;;;5.57;3.75;;;19.60;99.90;;;;;;5067131;28;20173;-45
2023/05/20 10:05:33;;;;;;;6.28;3.40;;;19.60;99.90;;;;;;5067196;28;20174;-45
2023/05/20 10:08:37;;;;;;;4.53;3.35;;;19.60;99.90;;;;;;5071365;28;20182;-44
2023/05/20 10:11:33;;;;;;;7.95;4.00;;;19.80;99.90;;;;;;5071351;28;20162;-45
2023/05/20 10:14:08;;;;;;;5.05;3.83;;;19.60;99.90;;;;;;5070805;28;20538;-45
2023/05/20 10:16:54;;;;;;;2.75;2.55;;;19.70;99.90;;;;;;5071510;28;20244;-45
2023/05/20 10:19:30;;;;;;;4.72;3.33;;;19.50;99.90;;;;;;5055389;28;20606;-48
2023/05/20 10:22:03;;;;;;;5.15;3.50;;;19.90;99.90;;;;;;5061174;28;20170;-45
2023/05/20 10:24:33;;;;;;;5.03;3.65;;;19.90;99.90;;;;;;5071392;28;20706;-44
2023/05/20 10:27:02;;;;;;;4.20;3.17;;;20.00;99.90;;;;;;5053261;28;20166;-44
2023/05/20 10:29:28;;;;;;;4.30;3.90;;;;;;;;;;5051513;28;20163;-44
2023/05/20 10:31:54;;;;;;;6.50;3.58;;;20.30;99.90;;;;;;5050999;28;20647;-46
2023/05/20 10:34:21;;;;;;;5.00;3.58;;;;;;;;;;5051114;28;20644;-45
2023/05/20 10:36:53;;;;;;;6.57;3.97;;;20.10;99.90;;;;;;5071736;28;20212;-44
2023/05/20 10:39:24;;;;;;;4.25;3.22;;;20.30;99.90;;;;;;5071077;28;20162;-45
2023/05/20 10:41:49;;;;;;;5.32;4.07;;;20.20;99.90;;;;;;5064901;28;20269;-48
2023/05/20 10:44:15;;;;;;;4.85;3.75;;;20.30;99.90;;;;;;5051372;28;20213;-48
2023/05/20 10:46:41;;;;;;;3.55;3.15;;;20.40;99.90;;;;;;5061415;28;20174;-44
2023/05/20 10:49:17;;;;;;;6.45;4.03;;;20.30;99.90;;;;;;5070897;28;20529;-44
2023/05/20 10:51:44;;;;;;;5.68;3.70;;;20.30;99.90;;;;;;5071292;28;20201;-48
2023/05/20 10:54:10;;;;;;;3.88;3.47;;;20.70;99.90;;;;;;5052996;28;20201;-46
2023/05/20 10:56:35;;;;;;;4.60;3.78;;;20.70;99.90;;;;;;5070751;28;20180;-50
2023/05/20 10:59:01;;;;;;;4.80;4.30;;;20.20;99.90;;;;;;5070961;28;20162;-48
2023/05/20 11:01:27;;;;;;;6.18;3.92;;;20.50;99.90;;;;;;5071632;28;20174;-48
2023/05/20 11:03:56;;;;;;;5.50;4.43;;;20.80;99.90;;;;;;5070877;28;20525;-48
2023/05/20 11:06:27;;;;;;;5.63;4.03;;;20.70;99.90;;;;;;5070346;28;20224;-49
2023/05/20 11:08:53;;;;;;;4.53;3.33;;;20.60;99.90;;;;;;5071086;28;20170;-48
2023/05/20 11:11:20;;;;;;;4.20;3.75;;;20.70;99.90;;;;;;5070830;28;20166;-46
2023/05/20 11:13:50;;;;;;;5.05;3.97;;;20.50;99.90;;;;;;5070978;28;20241;-49
2023/05/20 11:16:16;;;;;;;4.05;3.65;;;;;;;;;;5070768;28;20658;-48
2023/05/20 11:18:41;;;;;;;4.75;4.13;;;20.00;99.90;;;;;;5070680;28;20241;-50
2023/05/20 11:21:07;;;;;;;7.88;4.07;;;20.10;99.90;;;;;;5070711;28;20171;-46
2023/05/20 11:23:32;;;;;;;4.80;4.07;;;20.10;99.90;;;;;;5070748;28;20591;-47
2023/05/20 11:25:58;;;;;;;4.40;3.67;;;20.00;99.90;;;;;;5073288;28;20161;-47
2023/05/20 11:28:24;;;;;;;6.82;4.40;;;19.80;99.90;;;;;;5074601;28;20166;-46
2023/05/20 11:30:51;;;;;;;4.30;3.80;;;19.70;99.90;;;;;;5074253;28;20170;-48
2023/05/20 11:33:17;;;;;;;4.32;3.63;;;20.10;99.90;;;;;;5074142;28;20210;-46
2023/05/20 11:35:51;;;;;;;8.30;3.90;;;20.60;99.90;;;;;;5074079;28;20707;-47
2023/05/20 11:38:18;;;;;;;3.92;3.50;;;20.80;99.90;;;;;;5074021;28;20165;-48
2023/05/20 11:40:54;;;;;;;8.38;4.60;;;21.00;99.90;;;;;;5073980;28;20162;-46
2023/05/20 11:43:21;;;;;;;6.47;4.03;;;20.70;99.90;;;;;;5073904;28;20181;-46
2023/05/20 11:45:58;;;;;;;7.18;3.95;;;20.70;99.90;;;;;;5074063;28;20682;-47
2023/05/20 11:48:24;;;;;;;8.68;4.53;;;20.80;99.90;;;;;;5074250;28;20627;-47
2023/05/20 11:50:53;;;;;;;6.32;4.28;;;21.10;99.90;;;;;;5073794;28;20170;-48
2023/05/20 11:53:21;;;;;;;7.38;4.63;;;21.30;99.90;;;;;;5073780;28;20210;-47
2023/05/20 11:55:56;;;;;;;5.05;3.90;;;21.40;99.90;;;;;;5074068;28;20170;-47
2023/05/20 11:58:28;;;;;;;5.22;4.00;;;21.70;99.90;;;;;;5073793;28;20267;-46
2023/05/20 12:00:54;;;;;;;5.47;4.68;;;;;;;;;;5073654;28;20162;-46
2023/05/20 12:03:20;;;;;;;9.25;5.40;;;;;;;;;;5073586;28;20162;-47
2023/05/20 12:05:50;;;;;;;4.95;4.35;;;21.40;99.90;;;;;;5073262;28;20210;-46
2023/05/20 12:08:15;;;;;;;5.40;4.10;;;21.20;99.90;;;;;;5073521;28;20170;-46
2023/05/20 12:10:41;;;;;;;6.30;5.20;;;21.00;99.90;;;;;;5073531;28;20539;-47
2023/05/20 12:13:07;;;;;;;5.78;4.68;;;20.90;99.90;;;;;;5073643;28;20220;-50
2023/05/20 12:15:39;;;;;;;5.20;4.70;;;20.60;99.90;;;;;;5073394;28;20766;-46
2023/05/20 12:18:04;;;;;;;7.95;5.20;;;20.70;99.90;;;;;;5073584;28;20585;-49
2023/05/20 12:20:32;;;;;;;8.13;4.80;;;20.90;99.90;;;;;;5073221;28;20170;-47
2023/05/20 12:22:59;;;;;;;4.97;4.47;;;21.10;99.90;;;;;;5073901;28;20245;-47
2023/05/20 12:25:24;;;;;;;5.78;4.80;;;20.70;99.90;;;;;;5073841;28;20180;-45
2023/05/20 12:27:51;;;;;;;6.25;4.85;;;20.90;99.90;;;;;;5073143;28;20166;-50
2023/05/20 12:30:21;;;;;;;7.22;5.18;;;21.10;99.90;;;;;;5073346;28;20260;-49
2023/05/20 12:32:48;;;;;;;7.45;4.82;;;21.50;99.90;;;;;;5072844;28;20206;-47
2023/05/20 12:35:14;;;;;;;6.60;4.88;;;21.50;99.90;;;;;;5073162;28;20162;-46
2023/05/20 12:37:41;;;;;;;4.38;3.85;;;21.00;99.90;;;;;;5072384;28;20662;-46
2023/05/20 12:40:08;;;;;;;7.65;5.43;;;21.10;99.90;;;;;;5072867;28;20166;-46
2023/05/20 12:42:38;;;;;;;8.75;4.78;;;21.20;99.90;;;;;;5072870;28;20185;-46
2023/05/20 12:45:05;;;;;;;5.13;4.63;;;21.30;99.90;;;;;;5072991;28;20193;-45
2023/05/20 12:47:34;;;;;;;7.22;5.18;;;21.30;99.90;;;;;;5071111;28;20177;-46
2023/05/20 12:50:00;;;;;;;5.53;4.90;;;21.80;99.90;;;;;;5071905;28;20198;-46
2023/05/20 12:52:26;;;;;;;6.05;4.57;;;21.70;99.90;;;;;;5072368;28;20197;-46
2023/05/20 12:54:56;;;;;;;5.68;4.22;;;;;;;;;;5065621;28;20541;-46
2023/05/20 12:57:23;;;;;;;5.85;4.70;;;21.30;99.90;;;;;;5053819;28;20254;-45
2023/05/20 12:59:49;;;;;;;6.97;5.22;;;;;;;;;;5051974;28;20175;-45
2023/05/20 13:02:15;;;;;;;5.60;4.53;;;22.10;99.90;;;;;;5051554;28;20198;-45
2023/05/20 13:04:41;;;;;;;8.25;4.10;;;21.80;99.90;;;;;;5051622;28;20194;-45
2023/05/20 13:07:07;;;;;;;5.57;4.30;;;21.90;99.90;;;;;;5051465;28;20218;-46
2023/05/20 13:09:33;;;;;;;5.18;4.68;;;21.70;99.90;;;;;;5051345;28;20167;-45